Time;durP1;ratioP1;P1;durP2;ratioP2;P2;SDS_P1;SDS_P2;PMS_P1;PMS_P2;Temp;Humidity;BMP_temperature;BMP_pressure;BME280_temperature;BME280_humidity;BME280_pressure;Samples;Min_cycle;Max_cycle;Signal;HPM_P1;HPM_P2
2023/12/03 00:00:08;;;;;;;8.13;5.23;;;-1.40;99.90;;;;;;5000935;28;20962;-68
2023/12/03 00:02:35;;;;;;;8.77;5.27;;;-1.50;99.90;;;;;;5000873;28;20463;-69
2023/12/03 00:05:02;;;;;;;12.47;6.43;;;-1.60;99.90;;;;;;5021098;28;20494;-69
2023/12/03 00:07:28;;;;;;;10.10;6.00;;;-1.70;99.90;;;;;;5019578;28;20467;-68
2023/12/03 00:09:55;;;;;;;10.47;6.10;;;-1.90;99.90;;;;;;5020031;28;20450;-69
2023/12/03 00:12:21;;;;;;;10.70;6.00;;;-2.00;99.90;;;;;;5020423;28;20574;-69
2023/12/03 00:14:46;;;;;;;10.23;5.67;;;-1.90;99.90;;;;;;5022060;28;20553;-69
2023/12/03 00:17:12;;;;;;;7.90;4.63;;;-2.00;99.90;;;;;;5022793;28;20226;-68
2023/12/03 00:19:39;;;;;;;11.43;5.80;;;-2.00;99.90;;;;;;5027288;28;20223;-69
2023/12/03 00:22:05;;;;;;;11.37;4.80;;;-2.00;99.90;;;;;;5014920;28;20589;-69
2023/12/03 00:24:31;;;;;;;14.13;6.50;;;-2.20;99.90;;;;;;5019303;28;20460;-69
2023/12/03 00:26:57;;;;;;;14.30;5.37;;;-2.20;99.90;;;;;;4987959;28;20213;-70
2023/12/03 00:29:23;;;;;;;20.87;8.23;;;-2.30;99.90;;;;;;5015109;28;20240;-69
2023/12/03 00:31:49;;;;;;;8.43;4.63;;;-2.40;99.90;;;;;;5006880;28;20475;-68
2023/12/03 00:34:15;;;;;;;11.83;6.67;;;-2.30;99.90;;;;;;5002551;28;20224;-69
2023/12/03 00:36:40;;;;;;;10.90;5.57;;;-2.40;99.90;;;;;;4989709;28;20454;-68
2023/12/03 00:39:06;;;;;;;10.13;5.93;;;-2.50;99.90;;;;;;5012140;28;20309;-68
2023/12/03 00:41:32;;;;;;;11.23;6.43;;;-2.40;99.90;;;;;;5010354;28;20299;-68
2023/12/03 00:43:57;;;;;;;10.60;6.20;;;-2.40;99.90;;;;;;5009177;28;20241;-69
2023/12/03 00:46:23;;;;;;;10.90;4.73;;;-2.20;99.90;;;;;;5001508;28;20243;-69
2023/12/03 00:48:49;;;;;;;14.13;6.77;;;-2.10;99.90;;;;;;5003937;28;20221;-68
2023/12/03 00:51:15;;;;;;;10.70;6.13;;;-2.20;99.90;;;;;;4996824;28;20695;-70
2023/12/03 00:53:42;;;;;;;10.23;5.03;;;-2.30;99.90;;;;;;5010609;28;20235;-70
2023/12/03 00:56:08;;;;;;;15.40;6.80;;;-2.30;99.90;;;;;;5007586;28;20503;-69
2023/12/03 00:58:34;;;;;;;16.43;5.80;;;-2.40;99.90;;;;;;5006296;28;20462;-69
2023/12/03 01:01:00;;;;;;;16.60;6.30;;;-2.50;99.90;;;;;;5008313;28;20535;-68
2023/12/03 01:03:26;;;;;;;15.33;6.33;;;-2.50;99.90;;;;;;5006232;28;20228;-69
2023/12/03 01:05:51;;;;;;;12.50;6.50;;;-2.50;99.90;;;;;;5013713;28;20227;-69
2023/12/03 01:08:17;;;;;;;10.77;6.40;;;-2.50;99.90;;;;;;5018790;28;20247;-68
2023/12/03 01:10:43;;;;;;;9.40;5.50;;;-2.60;99.90;;;;;;5024338;28;20245;-68
2023/12/03 01:13:08;;;;;;;18.00;6.20;;;-2.70;99.90;;;;;;5016313;28;20231;-68
2023/12/03 01:15:34;;;;;;;11.60;6.70;;;-2.60;99.90;;;;;;5021576;28;20712;-70
2023/12/03 01:18:00;;;;;;;10.47;5.50;;;-2.50;99.90;;;;;;5023661;28;20220;-70
2023/12/03 01:20:26;;;;;;;13.93;6.97;;;-2.40;99.90;;;;;;5014075;28;20244;-70
2023/12/03 01:22:51;;;;;;;7.80;4.80;;;-2.50;99.90;;;;;;5023802;28;20231;-69
2023/12/03 01:25:17;;;;;;;14.90;6.40;;;-2.40;99.90;;;;;;5001557;28;20233;-70
2023/12/03 01:27:43;;;;;;;15.90;6.23;;;-2.40;99.90;;;;;;5022817;28;20379;-68
2023/12/03 01:30:09;;;;;;;14.63;7.00;;;-2.40;99.90;;;;;;5023629;28;20654;-68
2023/12/03 01:32:35;;;;;;;13.37;6.40;;;-2.50;99.90;;;;;;5021177;28;20328;-70
2023/12/03 01:35:00;;;;;;;9.97;5.80;;;-2.40;99.90;;;;;;5018439;28;20553;-69
2023/12/03 01:37:26;;;;;;;12.60;7.30;;;-2.30;99.90;;;;;;5015144;28;20299;-69
2023/12/03 01:39:51;;;;;;;9.40;5.33;;;-2.20;99.90;;;;;;5008534;28;20219;-69
2023/12/03 01:42:17;;;;;;;15.83;5.90;;;-2.20;99.90;;;;;;5020985;28;20591;-68
2023/12/03 01:44:43;;;;;;;12.30;5.53;;;-2.20;99.90;;;;;;5017761;28;20276;-69
2023/12/03 01:47:09;;;;;;;10.87;6.17;;;-2.30;99.90;;;;;;5023872;28;20216;-69
2023/12/03 01:49:35;;;;;;;11.80;6.23;;;-2.20;99.90;;;;;;5001149;28;20455;-69
2023/12/03 01:52:01;;;;;;;13.30;6.10;;;-2.10;99.90;;;;;;5021288;28;20474;-69
2023/12/03 01:54:32;;;;;;;14.60;6.87;;;-2.10;99.90;;;;;;5011632;28;20859;-70
2023/12/03 01:56:58;;;;;;;17.80;7.47;;;-2.10;99.90;;;;;;5006682;28;20458;-68
2023/12/03 01:59:24;;;;;;;10.80;7.17;;;-2.20;99.90;;;;;;4991698;28;20826;-69
2023/12/03 02:01:49;;;;;;;14.60;6.83;;;-2.10;99.90;;;;;;4997526;28;20213;-68
2023/12/03 02:04:15;;;;;;;12.20;7.37;;;-2.10;99.90;;;;;;5003906;28;20599;-68
2023/12/03 02:06:41;;;;;;;11.23;6.83;;;-2.30;99.90;;;;;;5002045;28;20221;-69
2023/12/03 02:09:07;;;;;;;14.43;6.67;;;-2.20;99.90;;;;;;5018691;28;20240;-69
2023/12/03 02:11:34;;;;;;;18.00;8.23;;;-2.30;99.90;;;;;;5001274;28;20212;-69
2023/12/03 02:14:01;;;;;;;19.53;7.60;;;-2.30;99.90;;;;;;5008855;28;20475;-69
2023/12/03 02:16:29;;;;;;;17.13;6.70;;;-2.30;99.90;;;;;;5000224;28;20477;-69
2023/12/03 02:18:54;;;;;;;14.50;7.27;;;-2.30;99.90;;;;;;5005009;28;20468;-69
2023/12/03 02:21:20;;;;;;;16.50;7.30;;;-2.10;99.90;;;;;;4985915;28;20456;-69
2023/12/03 02:23:47;;;;;;;15.57;8.10;;;-2.10;99.90;;;;;;5005001;28;20219;-68
2023/12/03 02:26:13;;;;;;;15.83;9.17;;;-2.10;99.90;;;;;;5017259;28;20215;-68
2023/12/03 02:28:38;;;;;;;17.83;7.60;;;-2.20;99.90;;;;;;5010694;28;21061;-69
2023/12/03 02:31:05;;;;;;;20.00;7.97;;;-2.20;99.90;;;;;;5002893;28;20216;-69
2023/12/03 02:33:30;;;;;;;13.50;6.40;;;-2.10;99.90;;;;;;5001395;28;20327;-69
2023/12/03 02:35:56;;;;;;;11.30;6.27;;;-2.00;99.90;;;;;;5022765;28;20552;-69
2023/12/03 02:38:21;;;;;;;11.77;6.00;;;-1.90;99.90;;;;;;5022405;28;20232;-69
2023/12/03 02:40:47;;;;;;;16.17;8.77;;;-1.70;99.90;;;;;;5023056;28;20229;-69
2023/12/03 02:43:13;;;;;;;11.43;5.60;;;-1.60;99.90;;;;;;5020945;28;20215;-69
2023/12/03 02:45:38;;;;;;;13.13;6.47;;;-1.60;99.90;;;;;;5020463;28;20224;-69
2023/12/03 02:48:04;;;;;;;14.83;6.67;;;-1.50;99.90;;;;;;5019562;28;20223;-69
2023/12/03 02:50:30;;;;;;;18.40;7.60;;;-1.40;99.90;;;;;;5019398;28;20239;-70
2023/12/03 02:52:55;;;;;;;16.73;5.80;;;-1.40;99.90;;;;;;5002411;28;20231;-69
2023/12/03 02:55:21;;;;;;;17.07;7.17;;;-1.30;99.90;;;;;;5019873;28;20235;-68
2023/12/03 02:57:47;;;;;;;12.00;6.83;;;-1.40;99.90;;;;;;5022007;28;20235;-69
2023/12/03 03:00:13;;;;;;;16.97;7.70;;;-1.40;99.90;;;;;;5018325;28;20220;-69
2023/12/03 03:02:38;;;;;;;14.70;7.70;;;-1.40;99.90;;;;;;5014952;28;20218;-69
2023/12/03 03:05:05;;;;;;;18.80;7.60;;;-1.50;99.90;;;;;;5001740;28;20459;-69
2023/12/03 03:07:30;;;;;;;17.97;7.10;;;-1.70;99.90;;;;;;5000583;28;20307;-70
2023/12/03 03:09:56;;;;;;;17.30;8.73;;;-1.70;99.90;;;;;;5012697;28;21085;-70
2023/12/03 03:12:22;;;;;;;21.07;7.40;;;-1.60;99.90;;;;;;5003202;28;20229;-69
2023/12/03 03:14:47;;;;;;;14.00;7.67;;;-1.50;99.90;;;;;;5010847;28;20245;-69
2023/12/03 03:17:13;;;;;;;18.90;8.33;;;-1.50;99.90;;;;;;5001096;28;20233;-68
2023/12/03 03:19:43;;;;;;;18.50;7.47;;;-1.60;99.90;;;;;;5022390;28;20595;-70
2023/12/03 03:22:11;;;;;;;18.50;8.67;;;-1.60;99.90;;;;;;5011378;28;20247;-70
2023/12/03 03:24:37;;;;;;;16.00;8.00;;;-1.90;99.90;;;;;;5021218;28;20999;-68
2023/12/03 03:27:03;;;;;;;18.77;8.20;;;-2.10;99.90;;;;;;5020521;28;20489;-70
2023/12/03 03:29:28;;;;;;;16.60;8.47;;;-2.20;99.90;;;;;;4996162;28;20224;-69
2023/12/03 03:31:54;;;;;;;13.03;7.70;;;-2.00;99.90;;;;;;4993775;28;20606;-68
2023/12/03 03:34:19;;;;;;;14.43;5.77;;;-1.90;99.90;;;;;;5018707;28;20718;-70
2023/12/03 03:36:45;;;;;;;16.23;7.50;;;-2.00;99.90;;;;;;5025342;28;20700;-69
2023/12/03 03:39:11;;;;;;;16.77;7.07;;;-1.80;99.90;;;;;;5018866;28;20219;-68
2023/12/03 03:41:36;;;;;;;16.07;6.50;;;-1.60;99.90;;;;;;5022969;28;20220;-69
2023/12/03 03:44:02;;;;;;;15.03;7.67;;;-1.50;99.90;;;;;;5015931;28;20243;-70
2023/12/03 03:46:28;;;;;;;18.03;8.07;;;-1.40;99.90;;;;;;5008850;28;20227;-70
2023/12/03 03:48:54;;;;;;;18.10;8.20;;;-1.40;99.90;;;;;;5017059;28;20224;-69
2023/12/03 03:51:20;;;;;;;10.93;7.30;;;-1.40;99.90;;;;;;5022012;28;20728;-69
2023/12/03 03:53:45;;;;;;;23.90;8.90;;;-1.40;99.90;;;;;;5016373;28;20471;-69
2023/12/03 03:56:12;;;;;;;17.50;8.80;;;-1.50;99.90;;;;;;4987046;28;20223;-69
2023/12/03 03:58:37;;;;;;;16.77;8.47;;;-1.60;99.90;;;;;;5005793;28;20228;-69
2023/12/03 04:01:05;;;;;;;17.17;8.23;;;-1.60;99.90;;;;;;4999252;28;20462;-70
2023/12/03 04:03:30;;;;;;;19.37;8.27;;;-1.90;99.90;;;;;;4995388;28;20232;-70
2023/12/03 04:05:59;;;;;;;18.63;7.93;;;-1.80;99.90;;;;;;4991173;28;20467;-70
2023/12/03 04:08:24;;;;;;;13.50;7.10;;;-1.90;99.90;;;;;;5000413;28;20225;-69
2023/12/03 04:10:50;;;;;;;22.00;8.63;;;-1.90;99.90;;;;;;4996380;28;20467;-69
2023/12/03 04:13:15;;;;;;;17.33;7.30;;;-1.90;99.90;;;;;;5014285;28;20247;-68
2023/12/03 04:15:41;;;;;;;19.53;9.60;;;-1.90;99.90;;;;;;4993612;28;20769;-69
2023/12/03 04:18:07;;;;;;;12.53;6.10;;;-1.70;99.90;;;;;;5002331;28;20702;-69
2023/12/03 04:20:33;;;;;;;18.60;8.40;;;-1.80;99.90;;;;;;5004197;28;20225;-69
2023/12/03 04:22:58;;;;;;;17.50;7.83;;;-1.80;99.90;;;;;;5002906;28;20608;-69
2023/12/03 04:25:24;;;;;;;15.07;8.03;;;-1.70;99.90;;;;;;5003846;28;20450;-69
2023/12/03 04:27:50;;;;;;;15.70;6.70;;;-2.00;99.90;;;;;;5013408;28;20767;-70
2023/12/03 04:30:15;;;;;;;15.77;7.80;;;-2.00;99.90;;;;;;5002221;28;20228;-69
2023/12/03 04:32:41;;;;;;;18.17;8.30;;;-2.10;99.90;;;;;;5004011;28;20223;-69
2023/12/03 04:35:08;;;;;;;18.43;9.00;;;-2.30;99.90;;;;;;5009050;28;20258;-68
2023/12/03 04:37:34;;;;;;;16.30;7.50;;;-2.60;99.90;;;;;;5006987;28;20315;-70
2023/12/03 04:39:59;;;;;;;12.33;7.07;;;-2.80;99.90;;;;;;5014886;28;20562;-69
2023/12/03 04:42:25;;;;;;;16.10;7.53;;;-2.90;99.90;;;;;;5022604;28;20213;-69
2023/12/03 04:44:51;;;;;;;19.10;7.80;;;-3.00;99.90;;;;;;5023632;28;20282;-69
2023/12/03 04:47:16;;;;;;;14.77;7.93;;;-3.00;99.90;;;;;;5019299;28;20209;-69
2023/12/03 04:49:42;;;;;;;19.60;6.10;;;-2.90;99.90;;;;;;5027092;28;20576;-68
2023/12/03 04:52:08;;;;;;;17.43;7.80;;;-3.00;99.90;;;;;;5008533;28;20295;-68
2023/12/03 04:54:33;;;;;;;12.37;6.27;;;-2.90;99.90;;;;;;5023448;28;20312;-69
2023/12/03 04:56:59;;;;;;;20.93;9.17;;;-2.80;99.90;;;;;;5012851;28;20221;-69
2023/12/03 04:59:25;;;;;;;17.37;8.27;;;-2.90;99.90;;;;;;5009343;28;20211;-69
2023/12/03 05:01:50;;;;;;;16.83;7.80;;;-3.00;99.90;;;;;;5021635;28;20288;-69
2023/12/03 05:04:16;;;;;;;20.00;9.23;;;-3.10;99.90;;;;;;5021967;28;20221;-69
2023/12/03 05:06:42;;;;;;;20.30;7.50;;;-3.00;99.90;;;;;;5008494;28;20227;-69
2023/12/03 05:09:09;;;;;;;20.37;7.73;;;-3.00;99.90;;;;;;5019395;28;20247;-69
2023/12/03 05:11:42;;;;;;;23.53;8.73;;;-3.00;99.90;;;;;;5019580;28;20221;-70
2023/12/03 05:14:08;;;;;;;23.77;8.07;;;-3.00;99.90;;;;;;5023155;28;20500;-68
2023/12/03 05:16:34;;;;;;;16.80;8.57;;;-3.00;99.90;;;;;;5021221;28;20493;-69
2023/12/03 05:18:59;;;;;;;21.30;6.97;;;-3.10;99.90;;;;;;5024819;28;20474;-69
2023/12/03 05:21:25;;;;;;;20.70;7.80;;;-3.00;99.90;;;;;;5023214;28;20211;-69
2023/12/03 05:23:51;;;;;;;16.13;7.63;;;-3.00;99.90;;;;;;5026247;28;20730;-69
2023/12/03 05:26:16;;;;;;;15.53;7.63;;;-2.90;99.90;;;;;;5022183;28;20232;-69
2023/12/03 05:28:42;;;;;;;25.83;7.47;;;-3.00;99.90;;;;;;5025101;28;20253;-68
2023/12/03 05:31:08;;;;;;;12.60;7.13;;;-3.00;99.90;;;;;;5022785;28;20224;-70
2023/12/03 05:33:33;;;;;;;18.07;7.43;;;-3.00;99.90;;;;;;5020344;28;20267;-67
2023/12/03 05:35:59;;;;;;;19.67;7.73;;;-3.00;99.90;;;;;;5025159;28;20266;-69
2023/12/03 05:38:25;;;;;;;15.67;5.13;;;-2.90;99.90;;;;;;5022733;28;20220;-69
2023/12/03 05:40:50;;;;;;;20.13;8.30;;;-2.80;99.90;;;;;;5023832;28;20229;-69
2023/12/03 05:43:16;;;;;;;21.33;6.93;;;-2.70;99.90;;;;;;5006529;28;20288;-69
2023/12/03 05:45:42;;;;;;;19.63;6.83;;;-2.60;99.90;;;;;;5021109;28;20238;-69
2023/12/03 05:48:07;;;;;;;16.07;8.83;;;-2.70;99.90;;;;;;5024212;28;20589;-68
2023/12/03 05:50:33;;;;;;;21.20;8.70;;;-2.60;99.90;;;;;;5021793;28;20564;-69
2023/12/03 05:52:59;;;;;;;11.60;6.73;;;-2.70;99.90;;;;;;5023756;28;20662;-68
2023/12/03 05:55:25;;;;;;;16.93;7.53;;;-2.60;99.90;;;;;;5004037;28;20462;-70
2023/12/03 05:57:50;;;;;;;12.30;5.57;;;-2.60;99.90;;;;;;5018937;28;20223;-70
2023/12/03 06:00:16;;;;;;;18.33;7.83;;;-2.60;99.90;;;;;;5020577;28;20293;-70
2023/12/03 06:02:42;;;;;;;13.90;6.77;;;-2.60;99.90;;;;;;5025315;28;20224;-69
2023/12/03 06:05:09;;;;;;;20.63;7.97;;;-2.80;99.90;;;;;;5022456;28;20478;-70
2023/12/03 06:07:35;;;;;;;12.27;5.67;;;-2.60;99.90;;;;;;5003700;28;20497;-70
2023/12/03 06:10:01;;;;;;;17.60;6.87;;;-2.70;99.90;;;;;;5007765;28;20483;-70
2023/12/03 06:12:26;;;;;;;14.50;6.40;;;-2.60;99.90;;;;;;5007468;28;20229;-67
2023/12/03 06:14:52;;;;;;;16.90;7.50;;;-2.60;99.90;;;;;;5003898;28;20245;-70
2023/12/03 06:17:18;;;;;;;14.07;6.60;;;-2.50;99.90;;;;;;5006307;28;20216;-70
2023/12/03 06:19:44;;;;;;;16.00;6.33;;;-2.60;99.90;;;;;;5003669;28;20744;-71
2023/12/03 06:22:10;;;;;;;15.03;6.50;;;-2.60;99.90;;;;;;5004510;28;20281;-70
2023/12/03 06:24:36;;;;;;;11.30;6.87;;;-2.70;99.90;;;;;;5003682;28;20459;-68
2023/12/03 06:27:01;;;;;;;12.77;5.47;;;-2.80;99.90;;;;;;4992818;28;20505;-70
2023/12/03 06:29:27;;;;;;;18.77;6.03;;;-2.90;99.90;;;;;;4984094;28;20272;-70
2023/12/03 06:31:53;;;;;;;12.97;5.50;;;-2.80;99.90;;;;;;5004073;28;20320;-70
2023/12/03 06:34:18;;;;;;;9.60;5.40;;;-2.70;99.90;;;;;;5011420;28;20229;-71
2023/12/03 06:36:44;;;;;;;11.00;4.63;;;-2.60;99.90;;;;;;5006851;28;20268;-69
2023/12/03 06:39:10;;;;;;;14.17;6.30;;;-2.50;99.90;;;;;;5004865;28;20223;-70
2023/12/03 06:41:36;;;;;;;12.23;5.30;;;-2.50;99.90;;;;;;5000083;28;20225;-70
2023/12/03 06:44:01;;;;;;;14.57;5.47;;;-2.40;99.90;;;;;;5001774;28;20224;-69
2023/12/03 06:46:27;;;;;;;13.17;4.90;;;-2.30;99.90;;;;;;4983598;28;20457;-70
2023/12/03 06:48:53;;;;;;;17.73;6.57;;;-2.20;99.90;;;;;;5010425;28;20228;-70
2023/12/03 06:51:18;;;;;;;11.93;5.30;;;-2.10;99.90;;;;;;5005476;28;20277;-70
2023/12/03 06:53:44;;;;;;;12.97;5.67;;;-2.00;99.90;;;;;;5007666;28;20223;-70
2023/12/03 06:56:11;;;;;;;10.07;4.00;;;-1.90;99.90;;;;;;5005212;28;20209;-71
2023/12/03 06:58:37;;;;;;;12.50;5.47;;;-1.90;99.90;;;;;;5011330;28;20840;-70
2023/12/03 07:01:03;;;;;;;11.23;4.63;;;-1.90;99.90;;;;;;5006467;28;20562;-70
2023/12/03 07:03:28;;;;;;;17.50;6.90;;;-1.80;99.90;;;;;;5001579;28;20985;-69
2023/12/03 07:05:54;;;;;;;18.13;5.83;;;-1.80;99.90;;;;;;5003496;28;20470;-70
2023/12/03 07:08:20;;;;;;;15.07;6.23;;;-1.80;99.90;;;;;;4999623;28;20359;-70
2023/12/03 07:10:46;;;;;;;12.03;6.60;;;-1.70;99.90;;;;;;5009018;28;20509;-68
2023/12/03 07:13:12;;;;;;;19.70;7.57;;;-1.70;99.90;;;;;;5000912;28;20490;-71
2023/12/03 07:15:37;;;;;;;17.03;7.00;;;-1.70;99.90;;;;;;5018146;28;20223;-71
2023/12/03 07:18:03;;;;;;;14.97;6.97;;;-1.70;99.90;;;;;;5005162;28;20226;-69
2023/12/03 07:20:29;;;;;;;17.30;7.07;;;-1.70;99.90;;;;;;5019373;28;20305;-69
2023/12/03 07:22:55;;;;;;;10.23;6.47;;;-1.70;99.90;;;;;;5022183;28;20238;-69
2023/12/03 07:25:22;;;;;;;22.13;6.83;;;-1.60;99.90;;;;;;5019695;28;20243;-69
2023/12/03 07:27:48;;;;;;;8.83;6.27;;;-1.70;99.90;;;;;;5021911;28;20459;-70
2023/12/03 07:30:14;;;;;;;11.10;6.00;;;-1.70;99.90;;;;;;4994511;28;20522;-70
2023/12/03 07:32:40;;;;;;;23.87;9.80;;;-1.70;99.90;;;;;;5000793;28;20475;-68
2023/12/03 07:35:07;;;;;;;25.60;13.77;;;-1.70;99.90;;;;;;5009396;28;20564;-69
2023/12/03 07:37:33;;;;;;;18.00;8.67;;;-1.60;99.90;;;;;;4998888;28;20468;-70
2023/12/03 07:39:58;;;;;;;19.60;8.80;;;-1.60;99.90;;;;;;5016545;28;20532;-70
2023/12/03 07:42:25;;;;;;;21.13;7.83;;;-1.60;99.90;;;;;;5006936;28;20224;-71
2023/12/03 07:44:51;;;;;;;22.60;9.43;;;-1.60;99.90;;;;;;5003225;28;20224;-70
2023/12/03 07:47:16;;;;;;;17.23;8.60;;;-1.60;99.90;;;;;;4996401;28;20462;-70
2023/12/03 07:49:43;;;;;;;18.13;7.50;;;-1.60;99.90;;;;;;5005319;28;20666;-69
2023/12/03 07:52:09;;;;;;;35.00;14.03;;;-1.50;99.90;;;;;;5022538;28;20262;-70
2023/12/03 07:54:35;;;;;;;31.17;13.60;;;-1.50;99.90;;;;;;4998878;28;20462;-70
2023/12/03 07:57:00;;;;;;;28.20;14.13;;;-1.50;99.90;;;;;;5020966;28;20220;-70
2023/12/03 07:59:26;;;;;;;43.23;13.03;;;-1.50;99.90;;;;;;5019020;28;20243;-70
2023/12/03 08:01:53;;;;;;;23.17;11.57;;;-1.40;99.90;;;;;;5023060;28;20296;-70
2023/12/03 08:04:19;;;;;;;20.20;11.03;;;-1.40;99.90;;;;;;5002880;28;20232;-70
2023/12/03 08:06:44;;;;;;;30.97;13.10;;;-1.40;99.90;;;;;;5013238;28;20455;-69
2023/12/03 08:09:11;;;;;;;31.47;14.33;;;-1.40;99.90;;;;;;5001362;28;20219;-70
2023/12/03 08:11:37;;;;;;;23.77;11.37;;;-1.40;99.90;;;;;;5016592;28;20221;-71
2023/12/03 08:14:03;;;;;;;15.07;7.70;;;-1.40;99.90;;;;;;5007055;28;21018;-70
2023/12/03 08:16:29;;;;;;;24.03;8.97;;;-1.50;99.90;;;;;;5001118;28;20308;-70
2023/12/03 08:18:54;;;;;;;22.43;7.87;;;-1.60;99.90;;;;;;5007203;28;20567;-70
2023/12/03 08:21:20;;;;;;;19.00;8.23;;;-1.70;99.90;;;;;;5005815;28;20706;-71
2023/12/03 08:23:46;;;;;;;19.53;7.00;;;-1.60;99.90;;;;;;5018582;28;20232;-70
2023/12/03 08:26:12;;;;;;;19.83;6.97;;;-1.50;99.90;;;;;;5009490;28;20467;-71
2023/12/03 08:28:37;;;;;;;17.03;5.60;;;-1.40;99.90;;;;;;5009667;28;20647;-70
2023/12/03 08:31:04;;;;;;;17.07;7.83;;;-1.40;99.90;;;;;;5009359;28;20223;-70
2023/12/03 08:33:29;;;;;;;12.40;7.00;;;-1.30;99.90;;;;;;5000733;28;20288;-70
2023/12/03 08:35:56;;;;;;;13.17;6.80;;;-1.30;99.90;;;;;;5003409;28;20977;-70
2023/12/03 08:38:22;;;;;;;15.90;7.10;;;-1.20;99.90;;;;;;5001531;28;20686;-70
2023/12/03 08:40:48;;;;;;;16.03;8.80;;;-1.20;99.90;;;;;;5004769;28;20545;-69
2023/12/03 08:43:15;;;;;;;19.63;8.37;;;-1.20;99.90;;;;;;4999795;28;20225;-70
2023/12/03 08:45:41;;;;;;;22.37;8.50;;;-1.10;99.90;;;;;;5010027;28;20702;-69
2023/12/03 08:48:07;;;;;;;16.80;7.50;;;-1.10;99.90;;;;;;4984279;28;20501;-70
2023/12/03 08:50:32;;;;;;;17.40;7.70;;;-1.10;99.90;;;;;;5004657;28;20274;-70
2023/12/03 08:52:58;;;;;;;14.90;6.63;;;-1.10;99.90;;;;;;5009087;28;20629;-70
2023/12/03 08:55:24;;;;;;;16.10;7.67;;;-1.00;99.90;;;;;;4991902;28;20232;-69
2023/12/03 08:57:50;;;;;;;13.77;5.50;;;-1.10;99.90;;;;;;4993371;28;20460;-70
2023/12/03 09:00:16;;;;;;;17.70;7.47;;;-1.00;99.90;;;;;;5005169;28;20496;-71
2023/12/03 09:02:46;;;;;;;15.27;7.20;;;-1.00;99.90;;;;;;5016592;28;20245;-70
2023/12/03 09:05:12;;;;;;;17.73;6.73;;;-1.00;99.90;;;;;;5000123;28;20468;-70
2023/12/03 09:07:38;;;;;;;16.73;6.80;;;-1.00;99.90;;;;;;5004794;28;20452;-70
2023/12/03 09:10:05;;;;;;;39.17;16.97;;;-1.10;99.90;;;;;;5010537;28;20345;-69
2023/12/03 09:12:30;;;;;;;45.17;19.40;;;-1.10;99.90;;;;;;5009724;28;20456;-70
2023/12/03 09:14:56;;;;;;;68.07;26.63;;;-1.20;99.90;;;;;;5004149;28;20555;-70
2023/12/03 09:17:22;;;;;;;50.60;24.70;;;-1.20;99.90;;;;;;5001811;28;20235;-71
2023/12/03 09:19:49;;;;;;;54.33;24.00;;;-1.10;99.90;;;;;;4998542;28;20718;-70
2023/12/03 09:22:15;;;;;;;52.37;26.83;;;-0.90;99.90;;;;;;5001871;28;20233;-70
2023/12/03 09:24:40;;;;;;;47.93;20.30;;;-0.90;99.90;;;;;;5015845;28;20454;-69
2023/12/03 09:27:06;;;;;;;30.33;16.60;;;-0.90;99.90;;;;;;5003326;28;20447;-68
2023/12/03 09:29:32;;;;;;;25.30;12.33;;;-0.80;99.90;;;;;;5020615;28;20704;-69
2023/12/03 09:31:57;;;;;;;23.53;10.87;;;-0.80;99.90;;;;;;5005449;28;20304;-69
2023/12/03 09:34:23;;;;;;;18.53;7.83;;;-0.70;99.90;;;;;;5017664;28;20308;-71
2023/12/03 09:36:48;;;;;;;18.10;9.23;;;-0.70;99.90;;;;;;5024314;28;20319;-70
2023/12/03 09:39:14;;;;;;;22.10;7.80;;;-0.70;99.90;;;;;;5020316;28;20271;-70
2023/12/03 09:41:49;;;;;;;13.63;6.57;;;-0.60;99.90;;;;;;4999656;28;20255;-70
2023/12/03 09:44:35;;;;;;;12.30;7.60;;;-0.60;99.90;;;;;;5004029;28;20241;-70
2023/12/03 09:47:03;;;;;;;21.00;8.70;;;-0.60;99.90;;;;;;5010153;28;20465;-70
2023/12/03 09:49:29;;;;;;;20.67;9.10;;;-0.60;99.90;;;;;;5005758;28;20467;-71
2023/12/03 09:52:00;;;;;;;15.90;7.10;;;-0.70;99.90;;;;;;5009033;28;20457;-70
2023/12/03 09:54:26;;;;;;;18.40;7.50;;;-0.70;99.90;;;;;;5000621;28;20463;-70
2023/12/03 09:56:55;;;;;;;13.33;7.80;;;-0.70;99.90;;;;;;5003594;28;20456;-71
2023/12/03 09:59:21;;;;;;;17.77;10.60;;;-0.60;99.90;;;;;;4998514;28;20305;-70
2023/12/03 10:01:48;;;;;;;28.40;12.77;;;-0.60;99.90;;;;;;5022604;28;20448;-68
2023/12/03 10:04:14;;;;;;;29.13;15.70;;;-0.50;99.90;;;;;;5004332;28;20506;-70
2023/12/03 10:06:43;;;;;;;21.50;11.50;;;-0.50;99.90;;;;;;5024836;28;20451;-68
2023/12/03 10:09:12;;;;;;;24.80;10.80;;;-0.50;99.90;;;;;;5034031;28;20368;-70
2023/12/03 10:11:47;;;;;;;18.07;9.17;;;-0.50;99.90;;;;;;5007533;28;20467;-71
2023/12/03 10:14:15;;;;;;;19.33;9.83;;;-0.40;99.90;;;;;;5019612;28;20485;-70
2023/12/03 10:16:49;;;;;;;18.50;7.27;;;-0.40;99.90;;;;;;4996168;28;20485;-69
2023/12/03 10:19:25;;;;;;;22.97;9.93;;;-0.40;99.90;;;;;;5016743;28;20467;-70
2023/12/03 10:21:51;;;;;;;15.37;7.27;;;-0.40;99.90;;;;;;5006499;28;20994;-70
2023/12/03 10:24:18;;;;;;;14.43;7.10;;;-0.40;99.90;;;;;;5020234;28;20465;-71
2023/12/03 10:26:52;;;;;;;15.57;7.43;;;-0.30;99.90;;;;;;5022014;28;20562;-71
2023/12/03 10:29:19;;;;;;;15.17;5.87;;;-0.20;99.90;;;;;;5018805;28;20831;-71
2023/12/03 10:31:48;;;;;;;16.57;7.90;;;-0.10;99.90;;;;;;5022627;28;20490;-70
2023/12/03 10:34:14;;;;;;;17.87;7.23;;;-0.10;99.90;;;;;;5002148;28;20480;-71
2023/12/03 10:36:43;;;;;;;9.63;6.50;;;0.00;99.90;;;;;;5022176;28;20464;-69
2023/12/03 10:39:11;;;;;;;20.20;8.50;;;0.00;99.90;;;;;;5021809;28;20221;-71
2023/12/03 10:41:38;;;;;;;16.47;7.70;;;0.00;99.90;;;;;;5014323;28;20452;-72
2023/12/03 10:44:03;;;;;;;15.17;6.83;;;0.20;99.90;;;;;;5023799;28;20498;-71
2023/12/03 10:46:29;;;;;;;15.37;7.67;;;0.10;99.90;;;;;;5013704;28;20496;-71
2023/12/03 10:48:55;;;;;;;18.47;7.20;;;0.10;99.90;;;;;;5009604;28;20218;-72
2023/12/03 10:51:22;;;;;;;17.03;7.37;;;0.10;99.90;;;;;;5018876;28;20248;-71
2023/12/03 10:53:48;;;;;;;21.53;9.60;;;0.20;99.90;;;;;;5020921;28;20480;-72
2023/12/03 10:56:16;;;;;;;23.57;9.20;;;0.30;99.90;;;;;;5013799;28;20463;-71
2023/12/03 10:58:43;;;;;;;14.57;7.77;;;0.30;99.90;;;;;;5020602;28;20456;-71
2023/12/03 11:01:29;;;;;;;20.50;8.53;;;0.30;99.90;;;;;;5004016;28;20470;-72
2023/12/03 11:03:58;;;;;;;21.17;8.80;;;0.40;99.90;;;;;;5020597;28;20463;-72
2023/12/03 11:06:25;;;;;;;13.70;7.23;;;0.50;99.90;;;;;;5018849;28;20973;-71
2023/12/03 11:08:55;;;;;;;19.43;9.70;;;0.50;99.90;;;;;;5022717;28;20455;-71
2023/12/03 11:11:22;;;;;;;16.83;7.83;;;0.40;99.90;;;;;;5020595;28;20462;-72
2023/12/03 11:13:57;;;;;;;19.27;9.60;;;0.50;99.90;;;;;;5017735;28;20473;-72
2023/12/03 11:16:27;;;;;;;13.43;6.57;;;0.50;99.90;;;;;;5000865;28;20455;-72
2023/12/03 11:19:06;;;;;;;15.40;7.77;;;0.60;99.90;;;;;;5022082;28;20487;-72
2023/12/03 11:21:37;;;;;;;15.40;7.30;;;0.70;99.90;;;;;;5016839;28;20529;-72
2023/12/03 11:24:24;;;;;;;13.17;7.10;;;1.30;99.90;;;;;;5018345;28;20467;-72
2023/12/03 11:26:49;;;;;;;21.77;7.77;;;1.60;99.90;;;;;;5018135;28;20555;-73
2023/12/03 11:29:15;;;;;;;19.63;7.13;;;1.70;99.90;;;;;;5015571;28;20538;-72
2023/12/03 11:31:41;;;;;;;19.60;8.77;;;1.90;99.90;;;;;;5019016;28;20225;-72
2023/12/03 11:34:10;;;;;;;12.57;6.80;;;2.00;99.90;;;;;;5021392;28;20229;-71
2023/12/03 11:36:49;;;;;;;12.80;6.27;;;1.90;99.90;;;;;;5018307;28;20454;-73
2023/12/03 11:39:19;;;;;;;14.67;8.53;;;1.90;99.90;;;;;;4997220;28;20529;-73
2023/12/03 11:42:06;;;;;;;13.23;6.60;;;2.00;99.90;;;;;;5005306;28;20662;-72
2023/12/03 11:44:34;;;;;;;14.60;6.57;;;2.00;99.90;;;;;;5019267;28;20455;-71
2023/12/03 11:47:05;;;;;;;18.73;6.50;;;2.10;99.90;;;;;;5014507;28;20457;-72
2023/12/03 11:49:34;;;;;;;20.83;8.10;;;2.00;99.90;;;;;;4998153;28;20286;-74
2023/12/03 11:52:03;;;;;;;15.80;8.43;;;2.00;99.90;;;;;;5003268;28;20460;-72
2023/12/03 11:54:37;;;;;;;16.80;7.03;;;2.00;99.90;;;;;;5000934;28;20978;-72
2023/12/03 11:57:12;;;;;;;13.40;6.87;;;1.90;99.90;;;;;;5009842;28;20468;-72
2023/12/03 11:59:42;;;;;;;17.13;7.67;;;1.90;99.90;;;;;;4999412;28;20543;-70
2023/12/03 12:02:08;;;;;;;12.57;6.20;;;2.00;99.90;;;;;;5008329;28;20510;-72
2023/12/03 12:04:34;;;;;;;24.10;7.67;;;2.10;99.90;;;;;;5003960;28;20550;-72
2023/12/03 12:07:16;;;;;;;16.63;7.50;;;2.20;99.90;;;;;;5010537;28;20218;-72
2023/12/03 12:09:43;;;;;;;17.43;8.10;;;2.40;99.90;;;;;;4997062;28;20308;-72
2023/12/03 12:12:09;;;;;;;15.13;7.80;;;2.40;99.90;;;;;;5006986;28;20465;-72
2023/12/03 12:14:34;;;;;;;22.30;8.63;;;2.40;99.90;;;;;;4984847;28;20463;-71
2023/12/03 12:17:01;;;;;;;14.67;7.53;;;2.40;99.90;;;;;;5012368;28;20458;-73
2023/12/03 12:19:26;;;;;;;15.50;7.97;;;2.50;99.90;;;;;;5012236;28;20300;-72
2023/12/03 12:21:53;;;;;;;18.00;7.60;;;2.60;99.90;;;;;;5004653;28;21074;-73
2023/12/03 12:24:19;;;;;;;12.63;6.73;;;2.80;99.90;;;;;;5022648;28;20283;-71
2023/12/03 12:26:45;;;;;;;18.60;9.63;;;2.90;99.90;;;;;;5012763;28;20485;-72
2023/12/03 12:29:12;;;;;;;11.50;6.90;;;3.00;99.90;;;;;;5003260;28;20229;-72
2023/12/03 12:31:39;;;;;;;15.00;7.30;;;3.00;99.90;;;;;;5020060;28;20459;-73
2023/12/03 12:34:04;;;;;;;18.87;9.67;;;3.00;99.90;;;;;;4992986;28;20473;-72